»·PEaware :: AAL2006 KBOI-KSEA

AAL2006 :: KBOI-KSEA

FLIGHT INFORMATION

Flight Status: Arrived
Operator:
American Airlines
More flights by this operator :: More flights under this callsign
Pilot: Will K. (13011)
Aircraft: Unknown
(B788)
More flights by this aircraft type
Origin: KBOI Boise Air Terminal/Gowen
United States
Destination: KSEA Seattle-Tacoma Intl
United States
More flights between these airports :: More routes between these airports
Route: +BOI3 LICKS PREIS PDT CHINS3
File this flight plan on PilotEdge
Remarks:
Altitude:
(Current/Filed)
32,000ft
Speed:
(Current/Filed)
350kts
Departed: 09-Jul-18 08:51 PM
Arrived: 09-Jul-18 09:54 PM
Distance/Time
Traveled:
345nm/1:03
Distance/Time
To Go:
Arrived

Flight Plot

Page will automatically refresh every two minutes.

Flight plan parsing failed; only flown route is shown


Map Options




Map Legend


Flown Route
Filed Route
Departure Airport
Arrival Airport
Navaid (VOR, NDB)
Fix

Horizontal Profiles

Position Reports

Time Latitude Longitude Heading Altitude Ground
Speed
09-Jul-18 20:22 43.567068 -116.221955 24 2847ft 0kts
09-Jul-18 20:23 43.567068 -116.221955 24 2847ft 0kts
09-Jul-18 20:24 43.567068 -116.221955 24 2847ft 0kts
09-Jul-18 20:25 43.567068 -116.221955 24 2847ft 0kts
09-Jul-18 20:26 43.567068 -116.221955 24 2847ft 0kts
09-Jul-18 20:27 43.567068 -116.221955 24 2847ft 0kts
09-Jul-18 20:28 43.567068 -116.221955 24 2847ft 0kts
09-Jul-18 20:29 43.567068 -116.221955 24 2847ft 0kts
09-Jul-18 20:30 43.567068 -116.221955 24 2847ft 0kts
09-Jul-18 20:31 43.567068 -116.221955 24 2847ft 0kts
09-Jul-18 20:32 43.567068 -116.221955 24 2847ft 0kts
09-Jul-18 20:33 43.567068 -116.221955 24 2847ft 0kts
09-Jul-18 20:34 43.567068 -116.221955 24 2847ft 0kts
09-Jul-18 20:35 43.567068 -116.221955 24 2847ft 0kts
09-Jul-18 20:36 43.567068 -116.221955 24 2847ft 0kts
09-Jul-18 20:37 43.567068 -116.221955 24 2847ft 0kts
09-Jul-18 20:38 43.567068 -116.221955 24 2847ft 0kts
09-Jul-18 20:39 43.567068 -116.221955 24 2847ft 0kts
09-Jul-18 20:40 43.566879 -116.222323 101 2847ft 2kts
09-Jul-18 20:41 43.567031 -116.222826 115 2847ft 0kts
09-Jul-18 20:42 43.567029 -116.222822 115 2847ft 0kts
09-Jul-18 20:43 43.567028 -116.222818 115 2847ft 0kts
09-Jul-18 20:44 43.566995 -116.222722 115 2847ft 3kts
09-Jul-18 20:45 43.565316 -116.219073 115 2847ft 15kts
09-Jul-18 20:46 43.563267 -116.213067 115 2847ft 20kts
09-Jul-18 20:47 43.560811 -116.205899 114 2847ft 22kts
09-Jul-18 20:48 43.559438 -116.202460 183 2847ft 0kts
09-Jul-18 20:49 43.559434 -116.202460 183 2847ft 0kts
09-Jul-18 20:50 43.559431 -116.202460 183 2847ft 0kts
09-Jul-18 20:51 43.559113 -116.204399 295 2847ft 34kts
09-Jul-18 20:52 43.576346 -116.254184 296 4349ft 183kts
09-Jul-18 20:53 43.599979 -116.329298 302 6493ft 244kts
09-Jul-18 20:54 43.668408 -116.371136 331 9180ft 295kts
09-Jul-18 20:55 43.746839 -116.429625 328 11436ft 357kts
09-Jul-18 20:56 43.838416 -116.499556 327 14217ft 385kts
09-Jul-18 20:57 43.934113 -116.572943 327 17200ft 400kts
09-Jul-18 20:58 44.033506 -116.649478 326 19766ft 417kts
09-Jul-18 20:59 44.135401 -116.731733 321 22052ft 431kts
09-Jul-18 21:00 44.226216 -116.841128 309 24143ft 434kts
09-Jul-18 21:01 44.314012 -116.962067 309 25897ft 449kts
09-Jul-18 21:02 44.403947 -117.086218 309 27610ft 459kts
09-Jul-18 21:03 44.496015 -117.213864 308 29077ft 472kts
09-Jul-18 21:04 44.590001 -117.344795 307 30674ft 481kts
09-Jul-18 21:05 44.685272 -117.478112 307 32117ft 484kts
09-Jul-18 21:06 44.780345 -117.611920 306 33060ft 485kts
09-Jul-18 21:07 44.875742 -117.746768 306 33043ft 487kts
09-Jul-18 21:08 44.971391 -117.882666 306 33046ft 488kts
09-Jul-18 21:09 45.067059 -118.019276 306 33047ft 489kts
09-Jul-18 21:10 45.162807 -118.156702 305 33049ft 490kts
09-Jul-18 21:11 45.258574 -118.294858 305 33062ft 490kts
09-Jul-18 21:12 45.354279 -118.433625 305 33101ft 491kts
09-Jul-18 21:13 45.449740 -118.572769 305 33130ft 491kts
09-Jul-18 21:14 45.545039 -118.712381 305 33092ft 491kts
09-Jul-18 21:15 45.640092 -118.852363 305 32921ft 492kts
09-Jul-18 21:16 45.733224 -118.996456 301 32612ft 492kts
09-Jul-18 21:17 45.821105 -119.145701 301 32308ft 491kts
09-Jul-18 21:18 45.909523 -119.295815 300 32008ft 492kts
09-Jul-18 21:19 45.997816 -119.446577 300 31928ft 492kts
09-Jul-18 21:20 46.084763 -119.595690 300 29993ft 477kts
09-Jul-18 21:21 46.168823 -119.740825 300 27905ft 464kts
09-Jul-18 21:22 46.250266 -119.882189 300 25647ft 451kts
09-Jul-18 21:23 46.328998 -120.019497 300 24047ft 439kts
09-Jul-18 21:24 46.406763 -120.155824 300 23982ft 439kts
09-Jul-18 21:25 46.484415 -120.292588 300 24001ft 440kts
09-Jul-18 21:26 46.561900 -120.430142 299 24006ft 439kts
09-Jul-18 21:27 46.631502 -120.572229 295 23950ft 411kts
09-Jul-18 21:28 46.692065 -120.699386 294 23301ft 359kts
09-Jul-18 21:29 46.748245 -120.818049 295 21426ft 350kts
09-Jul-18 21:30 46.802616 -120.933155 296 19745ft 339kts
09-Jul-18 21:31 46.855303 -121.045241 296 17986ft 328kts
09-Jul-18 21:32 46.906502 -121.154500 297 16518ft 323kts
09-Jul-18 21:33 46.956680 -121.262036 297 15131ft 317kts
09-Jul-18 21:34 47.005928 -121.368041 298 13798ft 312kts
09-Jul-18 21:35 47.054166 -121.472116 298 12516ft 305kts
09-Jul-18 21:36 47.101615 -121.574926 298 12240ft 305kts
09-Jul-18 21:37 47.149065 -121.678208 298 12235ft 305kts
09-Jul-18 21:38 47.196603 -121.782078 298 12228ft 306kts
09-Jul-18 21:39 47.243948 -121.885991 298 12243ft 306kts
09-Jul-18 21:40 47.291375 -121.990283 298 12233ft 306kts
09-Jul-18 21:41 47.338554 -122.094357 298 12237ft 305kts
09-Jul-18 21:42 47.399827 -122.176236 350 12213ft 317kts
09-Jul-18 21:43 47.488582 -122.175335 0 10996ft 310kts
09-Jul-18 21:44 47.573261 -122.172248 0 9460ft 295kts
09-Jul-18 21:45 47.653690 -122.169205 0 7881ft 284kts
09-Jul-18 21:46 47.731077 -122.170047 341 6275ft 274kts
09-Jul-18 21:47 47.759644 -122.263017 266 4650ft 262kts
09-Jul-18 21:48 47.708144 -122.317212 175 3895ft 235kts
09-Jul-18 21:49 47.647849 -122.309285 180 3860ft 195kts
09-Jul-18 21:50 47.598493 -122.309882 181 3036ft 152kts
09-Jul-18 21:51 47.557736 -122.310193 182 2282ft 143kts
09-Jul-18 21:52 47.518134 -122.310526 182 1536ft 140kts
09-Jul-18 21:53 47.479436 -122.310606 183 851ft 139kts
09-Jul-18 21:54 47.446817 -122.311090 180 446ft 48kts
09-Jul-18 21:55 47.439515 -122.309173 142 446ft 15kts
09-Jul-18 21:56 47.439888 -122.304694 89 446ft 15kts
09-Jul-18 21:57 47.439410 -122.302550 153 446ft 0kts
09-Jul-18 21:58 47.439360 -122.302513 153 446ft 0kts

Navigation Log

Ident Type
Flight plan parsing failed, navigation log unavailable